APJ128 RJCM-RJBB
Flight info
| Callsign | APJ128 |
|---|---|
| Flight time | 2h 25m |
| Altitude | 38000 |
| Route | OLDUS Y14 HWE Y12 TAPPI Z16 GNITS Z18 CHILY Y36 ATMUG |
| Aircraft | A20N/M-SDE2E3FGHIRWXY/LB1 |
Departure
| Time | 2026-04-22 05:47 |
|---|---|
| Airport | Memanbetsu Airport (RJCM) |
Arrival
| Time | 2026-04-22 08:12 |
|---|---|
| Airport | Kansai International Airport (RJBB) |
| Time | Latitude | Longitude | Altitude | Speed | Heading |
|---|---|---|---|---|---|
| 2026-04-22 05:27 | 43.88153 | 144.15973 | 124 ft | 0 kts | 264° |
| 2026-04-22 05:35 | 43.88154 | 144.15985 | 128 ft | 2 kts | 263° |
| 2026-04-22 05:35 | 43.88155 | 144.16004 | 128 ft | 2 kts | 264° |
| 2026-04-22 05:36 | 43.88157 | 144.16023 | 124 ft | 2 kts | 264° |
| 2026-04-22 05:36 | 43.88158 | 144.16042 | 124 ft | 2 kts | 264° |
| 2026-04-22 05:36 | 43.88160 | 144.16062 | 125 ft | 2 kts | 264° |
| 2026-04-22 05:36 | 43.88161 | 144.16081 | 125 ft | 2 kts | 265° |
| 2026-04-22 05:37 | 43.88162 | 144.16100 | 125 ft | 2 kts | 267° |
| 2026-04-22 05:37 | 43.88162 | 144.16119 | 125 ft | 2 kts | 271° |
| 2026-04-22 05:37 | 43.88161 | 144.16136 | 125 ft | 2 kts | 283° |
| 2026-04-22 05:37 | 43.88158 | 144.16148 | 125 ft | 1 kts | 312° |
| 2026-04-22 05:38 | 43.88152 | 144.16154 | 129 ft | 1 kts | 339° |
| 2026-04-22 05:38 | 43.88147 | 144.16157 | 126 ft | 1 kts | 349° |
| 2026-04-22 05:38 | 43.88141 | 144.16158 | 124 ft | 1 kts | 353° |
| 2026-04-22 05:43 | 43.88143 | 144.16158 | 128 ft | 2 kts | 353° |
| 2026-04-22 05:43 | 43.88150 | 144.16157 | 129 ft | 4 kts | 353° |
| 2026-04-22 05:44 | 43.88199 | 144.16150 | 127 ft | 10 kts | 355° |
| 2026-04-22 05:44 | 43.88289 | 144.16141 | 124 ft | 16 kts | 356° |
| 2026-04-22 05:44 | 43.88422 | 144.16123 | 122 ft | 22 kts | 353° |
| 2026-04-22 05:44 | 43.88586 | 144.16100 | 119 ft | 25 kts | 355° |
| 2026-04-22 05:45 | 43.88760 | 144.16078 | 118 ft | 26 kts | 354° |
| 2026-04-22 05:45 | 43.88939 | 144.16053 | 117 ft | 26 kts | 355° |
| 2026-04-22 05:45 | 43.89123 | 144.16044 | 114 ft | 25 kts | 23° |
| 2026-04-22 05:45 | 43.89156 | 144.16235 | 112 ft | 9 kts | 118° |
| 2026-04-22 05:46 | 43.89108 | 144.16262 | 113 ft | 0 kts | 176° |
| 2026-04-22 05:46 | 43.89101 | 144.16263 | 111 ft | 5 kts | 176° |
| 2026-04-22 05:46 | 43.88873 | 144.16291 | 113 ft | 66 kts | 174° |
| 2026-04-22 05:46 | 43.88193 | 144.16382 | 128 ft | 129 kts | 177° |
| 2026-04-22 05:47 | 43.87237 | 144.16514 | 602 ft | 141 kts | 177° |
| 2026-04-22 05:47 | 43.86234 | 144.16499 | 1220 ft | 147 kts | 204° |
| 2026-04-22 05:47 | 43.85483 | 144.15655 | 1872 ft | 141 kts | 242° |
| 2026-04-22 05:47 | 43.84987 | 144.14335 | 2427 ft | 169 kts | 247° |
| 2026-04-22 05:48 | 43.84418 | 144.12758 | 2854 ft | 199 kts | 245° |
| 2026-04-22 05:48 | 43.83695 | 144.10940 | 3362 ft | 227 kts | 242° |
| 2026-04-22 05:48 | 43.82875 | 144.09016 | 4331 ft | 235 kts | 241° |
| 2026-04-22 05:48 | 43.82022 | 144.07072 | 5396 ft | 237 kts | 240° |
| 2026-04-22 05:49 | 43.81158 | 144.05125 | 6460 ft | 238 kts | 240° |
| 2026-04-22 05:49 | 43.80290 | 144.03183 | 7534 ft | 236 kts | 241° |
| 2026-04-22 05:49 | 43.79432 | 144.01270 | 8656 ft | 232 kts | 242° |
| 2026-04-22 05:49 | 43.78585 | 143.99381 | 9804 ft | 229 kts | 243° |
| 2026-04-22 05:50 | 43.77744 | 143.97501 | 10675 ft | 235 kts | 243° |
| 2026-04-22 05:50 | 43.76848 | 143.95485 | 11115 ft | 257 kts | 243° |
| 2026-04-22 05:50 | 43.75872 | 143.93293 | 11523 ft | 279 kts | 243° |
| 2026-04-22 05:50 | 43.74817 | 143.90941 | 12099 ft | 294 kts | 243° |
| 2026-04-22 05:51 | 43.73725 | 143.88519 | 12960 ft | 299 kts | 242° |
| 2026-04-22 05:51 | 43.72623 | 143.86085 | 13917 ft | 299 kts | 243° |
| 2026-04-22 05:51 | 43.71533 | 143.83672 | 14791 ft | 300 kts | 243° |
| 2026-04-22 05:51 | 43.70421 | 143.81214 | 15596 ft | 302 kts | 243° |
| 2026-04-22 05:52 | 43.69306 | 143.78749 | 16436 ft | 304 kts | 243° |
| 2026-04-22 05:52 | 43.68184 | 143.76264 | 17247 ft | 306 kts | 243° |
| 2026-04-22 05:52 | 43.67056 | 143.73770 | 18064 ft | 307 kts | 243° |
| 2026-04-22 05:52 | 43.65923 | 143.71261 | 18762 ft | 308 kts | 244° |
| 2026-04-22 05:53 | 43.64614 | 143.68868 | 19438 ft | 320 kts | 232° |
| 2026-04-22 05:53 | 43.62978 | 143.66769 | 20120 ft | 323 kts | 232° |
| 2026-04-22 05:53 | 43.61308 | 143.64676 | 20794 ft | 325 kts | 232° |
| 2026-04-22 05:53 | 43.59623 | 143.62571 | 21394 ft | 329 kts | 232° |
| 2026-04-22 05:54 | 43.57926 | 143.60434 | 21987 ft | 332 kts | 233° |
| 2026-04-22 05:54 | 43.56223 | 143.58278 | 22582 ft | 334 kts | 233° |
| 2026-04-22 05:54 | 43.54506 | 143.56097 | 23158 ft | 337 kts | 233° |
| 2026-04-22 05:54 | 43.52779 | 143.53901 | 23618 ft | 339 kts | 233° |
| 2026-04-22 05:55 | 43.51041 | 143.51690 | 24073 ft | 341 kts | 233° |
| 2026-04-22 05:55 | 43.49294 | 143.49467 | 24502 ft | 343 kts | 234° |
| 2026-04-22 05:55 | 43.47537 | 143.47231 | 24924 ft | 346 kts | 234° |
| 2026-04-22 05:55 | 43.45761 | 143.44975 | 25374 ft | 348 kts | 234° |
| 2026-04-22 05:56 | 43.43978 | 143.42711 | 25866 ft | 349 kts | 234° |
| 2026-04-22 05:56 | 43.42206 | 143.40460 | 26304 ft | 351 kts | 234° |
| 2026-04-22 05:56 | 43.40380 | 143.38144 | 26700 ft | 353 kts | 234° |
| 2026-04-22 05:56 | 43.38593 | 143.35881 | 27070 ft | 355 kts | 233° |
| 2026-04-22 05:57 | 43.36769 | 143.33572 | 27439 ft | 357 kts | 234° |
| 2026-04-22 05:57 | 43.34935 | 143.31251 | 27814 ft | 359 kts | 234° |
| 2026-04-22 05:57 | 43.33099 | 143.28937 | 28357 ft | 357 kts | 234° |
| 2026-04-22 05:57 | 43.31280 | 143.26650 | 28942 ft | 354 kts | 234° |
| 2026-04-22 05:58 | 43.29468 | 143.24375 | 29478 ft | 352 kts | 235° |
| 2026-04-22 05:58 | 43.27668 | 143.22113 | 29934 ft | 350 kts | 235° |
| 2026-04-22 05:58 | 43.25872 | 143.19851 | 30234 ft | 351 kts | 235° |
| 2026-04-22 05:58 | 43.24068 | 143.17576 | 30496 ft | 353 kts | 235° |
| 2026-04-22 05:59 | 43.22256 | 143.15291 | 30775 ft | 354 kts | 235° |
| 2026-04-22 05:59 | 43.20438 | 143.13003 | 31104 ft | 355 kts | 234° |
| 2026-04-22 05:59 | 43.18611 | 143.10710 | 31430 ft | 355 kts | 234° |
| 2026-04-22 05:59 | 43.16785 | 143.08421 | 31734 ft | 356 kts | 234° |
| 2026-04-22 06:00 | 43.14954 | 143.06127 | 32015 ft | 357 kts | 234° |
| 2026-04-22 06:00 | 43.13125 | 143.03837 | 32318 ft | 357 kts | 234° |
| 2026-04-22 06:00 | 43.11301 | 143.01513 | 32605 ft | 355 kts | 236° |
| 2026-04-22 06:00 | 43.09658 | 142.99046 | 32891 ft | 349 kts | 241° |
| 2026-04-22 06:01 | 43.08142 | 142.96460 | 33175 ft | 348 kts | 242° |
| 2026-04-22 06:01 | 43.06665 | 142.93840 | 33462 ft | 348 kts | 242° |
| 2026-04-22 06:01 | 43.05209 | 142.91199 | 33747 ft | 347 kts | 243° |
| 2026-04-22 06:01 | 43.03782 | 142.88586 | 34017 ft | 347 kts | 243° |
| 2026-04-22 06:02 | 43.02338 | 142.85939 | 34229 ft | 348 kts | 243° |
| 2026-04-22 06:02 | 43.00871 | 142.83251 | 34398 ft | 350 kts | 242° |
| 2026-04-22 06:02 | 42.99411 | 142.80585 | 34561 ft | 351 kts | 242° |
| 2026-04-22 06:02 | 42.97942 | 142.77916 | 34760 ft | 351 kts | 242° |
| 2026-04-22 06:03 | 42.96492 | 142.75287 | 34936 ft | 351 kts | 242° |
| 2026-04-22 06:03 | 42.95018 | 142.72619 | 35092 ft | 353 kts | 242° |
| 2026-04-22 06:03 | 42.93542 | 142.69951 | 35252 ft | 353 kts | 242° |
| 2026-04-22 06:03 | 42.92059 | 142.67273 | 35438 ft | 354 kts | 241° |
| 2026-04-22 06:04 | 42.90566 | 142.64582 | 35575 ft | 355 kts | 241° |
| 2026-04-22 06:04 | 42.89073 | 142.61892 | 35760 ft | 356 kts | 241° |
| 2026-04-22 06:04 | 42.87576 | 142.59197 | 35972 ft | 357 kts | 241° |
| 2026-04-22 06:04 | 42.86074 | 142.56496 | 36187 ft | 358 kts | 241° |
| 2026-04-22 06:05 | 42.84568 | 142.53787 | 36369 ft | 359 kts | 241° |
| 2026-04-22 06:05 | 42.83060 | 142.51078 | 36530 ft | 360 kts | 241° |
| 2026-04-22 06:05 | 42.81542 | 142.48352 | 36715 ft | 361 kts | 241° |
| 2026-04-22 06:05 | 42.80054 | 142.45600 | 36909 ft | 359 kts | 242° |
| 2026-04-22 06:06 | 42.78638 | 142.42808 | 37045 ft | 359 kts | 243° |
| 2026-04-22 06:06 | 42.77255 | 142.39978 | 37270 ft | 359 kts | 244° |
| 2026-04-22 06:06 | 42.75886 | 142.37138 | 37463 ft | 359 kts | 244° |
| 2026-04-22 06:06 | 42.74535 | 142.34326 | 37587 ft | 360 kts | 244° |
| 2026-04-22 06:07 | 42.73159 | 142.31473 | 37697 ft | 361 kts | 243° |
| 2026-04-22 06:07 | 42.71772 | 142.28614 | 37719 ft | 362 kts | 243° |
| 2026-04-22 06:07 | 42.68985 | 142.22915 | 37726 ft | 361 kts | 243° |
| 2026-04-22 06:08 | 42.66197 | 142.17242 | 37722 ft | 360 kts | 243° |
| 2026-04-22 06:08 | 42.63460 | 142.11683 | 37742 ft | 360 kts | 243° |
| 2026-04-22 06:09 | 42.60676 | 142.06039 | 37721 ft | 359 kts | 243° |
| 2026-04-22 06:09 | 42.57895 | 142.00407 | 37722 ft | 359 kts | 243° |
| 2026-04-22 06:10 | 42.54954 | 141.94910 | 37721 ft | 364 kts | 237° |
| 2026-04-22 06:10 | 42.51574 | 141.89761 | 37720 ft | 365 kts | 236° |
| 2026-04-22 06:11 | 42.48115 | 141.84708 | 37723 ft | 365 kts | 236° |
| 2026-04-22 06:11 | 42.44647 | 141.79679 | 37724 ft | 365 kts | 236° |
| 2026-04-22 06:12 | 42.41209 | 141.74684 | 37718 ft | 365 kts | 236° |
| 2026-04-22 06:12 | 42.37752 | 141.69657 | 37725 ft | 365 kts | 236° |
| 2026-04-22 06:13 | 42.34293 | 141.64632 | 37724 ft | 365 kts | 236° |
| 2026-04-22 06:13 | 42.30834 | 141.59616 | 37725 ft | 364 kts | 236° |
| 2026-04-22 06:14 | 42.27375 | 141.54608 | 37726 ft | 364 kts | 236° |
| 2026-04-22 06:14 | 42.23919 | 141.49616 | 37728 ft | 364 kts | 236° |
| 2026-04-22 06:15 | 42.20460 | 141.44626 | 37735 ft | 364 kts | 236° |
| 2026-04-22 06:15 | 42.17000 | 141.39645 | 37735 ft | 363 kts | 236° |
| 2026-04-22 06:16 | 42.13542 | 141.34674 | 37734 ft | 363 kts | 236° |
| 2026-04-22 06:16 | 42.10088 | 141.29718 | 37737 ft | 362 kts | 236° |
| 2026-04-22 06:17 | 42.06641 | 141.24781 | 37736 ft | 361 kts | 236° |
| 2026-04-22 06:17 | 42.03227 | 141.19898 | 37738 ft | 360 kts | 236° |
| 2026-04-22 06:18 | 41.99801 | 141.15007 | 37745 ft | 359 kts | 236° |
| 2026-04-22 06:18 | 41.96378 | 141.10128 | 37742 ft | 358 kts | 236° |
| 2026-04-22 06:19 | 41.92959 | 141.05263 | 37742 ft | 358 kts | 236° |
| 2026-04-22 06:19 | 41.89549 | 141.00417 | 37742 ft | 357 kts | 237° |
| 2026-04-22 06:20 | 41.86137 | 140.95578 | 37748 ft | 356 kts | 237° |
| 2026-04-22 06:20 | 41.82730 | 140.90754 | 37747 ft | 356 kts | 237° |
| 2026-04-22 06:21 | 41.79898 | 140.86750 | 37744 ft | 355 kts | 237° |
| 2026-04-22 06:21 | 41.76301 | 140.82132 | 37748 ft | 363 kts | 231° |
| 2026-04-22 06:22 | 41.72372 | 140.77857 | 37749 ft | 365 kts | 230° |
| 2026-04-22 06:22 | 41.68375 | 140.73659 | 37748 ft | 365 kts | 230° |
| 2026-04-22 06:23 | 41.64375 | 140.69479 | 37750 ft | 364 kts | 230° |
| 2026-04-22 06:23 | 41.60386 | 140.65300 | 37758 ft | 364 kts | 230° |
| 2026-04-22 06:24 | 41.54416 | 140.59040 | 37763 ft | 363 kts | 230° |
| 2026-04-22 06:25 | 41.50442 | 140.54879 | 37782 ft | 363 kts | 230° |
| 2026-04-22 06:25 | 41.46470 | 140.50730 | 37794 ft | 362 kts | 230° |
| 2026-04-22 06:26 | 41.42510 | 140.46598 | 37788 ft | 361 kts | 230° |
| 2026-04-22 06:26 | 41.38551 | 140.42476 | 37795 ft | 361 kts | 230° |
| 2026-04-22 06:27 | 41.34599 | 140.38366 | 37797 ft | 360 kts | 230° |
| 2026-04-22 06:27 | 41.30652 | 140.34268 | 37799 ft | 359 kts | 230° |
| 2026-04-22 06:28 | 41.26714 | 140.30186 | 37801 ft | 359 kts | 230° |
| 2026-04-22 06:28 | 41.22798 | 140.26133 | 37807 ft | 358 kts | 230° |
| 2026-04-22 06:29 | 41.18873 | 140.22078 | 37811 ft | 357 kts | 230° |
| 2026-04-22 06:29 | 41.14954 | 140.18035 | 37814 ft | 357 kts | 230° |
| 2026-04-22 06:30 | 41.11085 | 140.13936 | 37817 ft | 354 kts | 232° |
| 2026-04-22 06:30 | 41.07300 | 140.09778 | 37821 ft | 352 kts | 232° |
| 2026-04-22 06:31 | 41.03539 | 140.05632 | 37824 ft | 351 kts | 232° |
| 2026-04-22 06:31 | 40.99781 | 140.01509 | 37824 ft | 350 kts | 232° |
| 2026-04-22 06:32 | 40.96033 | 139.97416 | 37829 ft | 348 kts | 232° |
| 2026-04-22 06:32 | 40.92297 | 139.93345 | 37828 ft | 347 kts | 232° |
| 2026-04-22 06:33 | 40.88600 | 139.89322 | 37827 ft | 346 kts | 232° |
| 2026-04-22 06:33 | 40.84882 | 139.85281 | 37831 ft | 345 kts | 232° |
| 2026-04-22 06:34 | 40.81173 | 139.81258 | 37835 ft | 344 kts | 232° |
| 2026-04-22 06:34 | 40.77480 | 139.77257 | 37835 ft | 343 kts | 232° |
| 2026-04-22 06:35 | 40.73790 | 139.73264 | 37846 ft | 343 kts | 232° |
| 2026-04-22 06:35 | 40.70103 | 139.69281 | 37844 ft | 342 kts | 232° |
| 2026-04-22 06:36 | 40.66420 | 139.65308 | 37842 ft | 342 kts | 232° |
| 2026-04-22 06:36 | 40.62746 | 139.61352 | 37848 ft | 341 kts | 232° |
| 2026-04-22 06:37 | 40.59073 | 139.57401 | 37862 ft | 341 kts | 232° |
| 2026-04-22 06:37 | 40.55403 | 139.53460 | 37838 ft | 340 kts | 232° |
| 2026-04-22 06:38 | 40.51759 | 139.49552 | 37850 ft | 340 kts | 232° |
| 2026-04-22 06:38 | 40.48092 | 139.45626 | 37853 ft | 340 kts | 232° |
| 2026-04-22 06:39 | 40.44428 | 139.41709 | 37855 ft | 339 kts | 232° |
| 2026-04-22 06:39 | 40.40769 | 139.37803 | 37851 ft | 339 kts | 231° |
| 2026-04-22 06:40 | 40.37118 | 139.33911 | 37857 ft | 338 kts | 231° |
| 2026-04-22 06:40 | 40.33462 | 139.30019 | 37858 ft | 338 kts | 231° |
| 2026-04-22 06:41 | 40.29813 | 139.26140 | 37856 ft | 337 kts | 231° |
| 2026-04-22 06:41 | 40.26186 | 139.22289 | 37858 ft | 337 kts | 231° |
| 2026-04-22 06:42 | 40.22540 | 139.18425 | 37872 ft | 337 kts | 231° |
| 2026-04-22 06:42 | 40.18893 | 139.14563 | 37865 ft | 337 kts | 231° |
| 2026-04-22 06:43 | 40.15242 | 139.10704 | 37866 ft | 337 kts | 231° |
| 2026-04-22 06:43 | 40.11595 | 139.06855 | 37867 ft | 337 kts | 231° |
| 2026-04-22 06:44 | 40.07936 | 139.02999 | 37869 ft | 337 kts | 231° |
| 2026-04-22 06:44 | 40.04286 | 138.99159 | 37870 ft | 337 kts | 231° |
| 2026-04-22 06:45 | 40.00654 | 138.95342 | 37869 ft | 337 kts | 231° |
| 2026-04-22 06:45 | 39.97009 | 138.91517 | 37877 ft | 336 kts | 231° |
| 2026-04-22 06:46 | 39.93362 | 138.87695 | 37877 ft | 336 kts | 231° |
| 2026-04-22 06:46 | 39.89717 | 138.83881 | 37875 ft | 336 kts | 231° |
| 2026-04-22 06:47 | 39.86073 | 138.80073 | 37879 ft | 336 kts | 231° |
| 2026-04-22 06:47 | 39.82435 | 138.76276 | 37878 ft | 335 kts | 231° |
| 2026-04-22 06:48 | 39.78794 | 138.72481 | 37885 ft | 335 kts | 231° |
| 2026-04-22 06:48 | 39.75152 | 138.68691 | 37884 ft | 335 kts | 231° |
| 2026-04-22 06:49 | 39.71510 | 138.64907 | 37888 ft | 335 kts | 231° |
| 2026-04-22 06:49 | 39.67868 | 138.61127 | 37887 ft | 335 kts | 231° |
| 2026-04-22 06:50 | 39.64248 | 138.57375 | 37891 ft | 335 kts | 230° |
| 2026-04-22 06:50 | 39.60600 | 138.53600 | 37892 ft | 335 kts | 230° |
| 2026-04-22 06:51 | 39.56951 | 138.49831 | 37894 ft | 335 kts | 230° |
| 2026-04-22 06:51 | 39.53301 | 138.46063 | 37892 ft | 335 kts | 230° |
| 2026-04-22 06:52 | 39.49654 | 138.42303 | 37899 ft | 335 kts | 230° |
| 2026-04-22 06:52 | 39.45995 | 138.38538 | 37901 ft | 335 kts | 230° |
| 2026-04-22 06:53 | 39.42340 | 138.34782 | 37906 ft | 335 kts | 230° |
| 2026-04-22 06:53 | 39.38689 | 138.31035 | 37900 ft | 335 kts | 230° |
| 2026-04-22 06:54 | 39.35031 | 138.27287 | 37902 ft | 335 kts | 230° |
| 2026-04-22 06:54 | 39.31373 | 138.23543 | 37900 ft | 335 kts | 230° |
| 2026-04-22 06:55 | 39.27714 | 138.19804 | 37900 ft | 335 kts | 230° |
| 2026-04-22 06:55 | 39.24080 | 138.16093 | 37905 ft | 335 kts | 230° |
| 2026-04-22 06:56 | 39.20418 | 138.12360 | 37913 ft | 335 kts | 230° |
| 2026-04-22 06:56 | 39.16759 | 138.08636 | 37908 ft | 335 kts | 230° |
| 2026-04-22 06:57 | 39.13094 | 138.04909 | 37912 ft | 335 kts | 230° |
| 2026-04-22 06:57 | 39.09427 | 138.01187 | 37908 ft | 335 kts | 230° |
| 2026-04-22 06:58 | 39.05763 | 137.97473 | 37907 ft | 335 kts | 230° |
| 2026-04-22 06:58 | 39.02093 | 137.93757 | 37913 ft | 336 kts | 230° |
| 2026-04-22 06:59 | 38.98426 | 137.90050 | 37916 ft | 336 kts | 230° |
| 2026-04-22 06:59 | 38.94754 | 137.86343 | 37922 ft | 335 kts | 230° |
| 2026-04-22 07:00 | 38.91081 | 137.82640 | 37921 ft | 335 kts | 230° |
| 2026-04-22 07:00 | 38.87408 | 137.78941 | 37920 ft | 335 kts | 230° |
| 2026-04-22 07:01 | 38.83734 | 137.75247 | 37924 ft | 335 kts | 230° |
| 2026-04-22 07:01 | 38.80058 | 137.71555 | 37926 ft | 336 kts | 230° |
| 2026-04-22 07:02 | 38.76383 | 137.67870 | 37926 ft | 336 kts | 230° |
| 2026-04-22 07:02 | 38.72720 | 137.64201 | 37926 ft | 336 kts | 230° |
| 2026-04-22 07:03 | 38.69041 | 137.60521 | 37935 ft | 336 kts | 229° |
| 2026-04-22 07:03 | 38.65348 | 137.56831 | 37932 ft | 337 kts | 229° |
| 2026-04-22 07:04 | 38.61646 | 137.53138 | 37937 ft | 338 kts | 229° |
| 2026-04-22 07:04 | 38.57941 | 137.49448 | 37935 ft | 338 kts | 229° |
| 2026-04-22 07:05 | 38.54226 | 137.45752 | 37940 ft | 339 kts | 229° |
| 2026-04-22 07:05 | 38.50505 | 137.42055 | 37944 ft | 339 kts | 229° |
| 2026-04-22 07:06 | 38.46779 | 137.38359 | 37945 ft | 339 kts | 229° |
| 2026-04-22 07:06 | 38.43073 | 137.34687 | 37945 ft | 340 kts | 229° |
| 2026-04-22 07:07 | 38.39963 | 137.31609 | 37954 ft | 340 kts | 229° |
| 2026-04-22 07:07 | 38.36219 | 137.27909 | 37947 ft | 341 kts | 229° |
| 2026-04-22 07:08 | 38.32463 | 137.24200 | 37949 ft | 342 kts | 229° |
| 2026-04-22 07:08 | 38.28703 | 137.20495 | 37946 ft | 342 kts | 229° |
| 2026-04-22 07:09 | 38.24932 | 137.16783 | 37949 ft | 343 kts | 229° |
| 2026-04-22 07:09 | 38.21154 | 137.13070 | 37948 ft | 343 kts | 229° |
| 2026-04-22 07:10 | 38.17374 | 137.09360 | 37953 ft | 344 kts | 229° |
| 2026-04-22 07:10 | 38.13584 | 137.05644 | 37950 ft | 344 kts | 229° |
| 2026-04-22 07:11 | 38.09793 | 137.01932 | 37955 ft | 344 kts | 229° |
| 2026-04-22 07:11 | 38.05993 | 136.98217 | 37956 ft | 345 kts | 229° |
| 2026-04-22 07:12 | 38.02190 | 136.94503 | 37956 ft | 345 kts | 229° |
| 2026-04-22 07:12 | 37.98413 | 136.90820 | 37958 ft | 345 kts | 229° |
| 2026-04-22 07:13 | 37.94607 | 136.87113 | 37962 ft | 345 kts | 229° |
| 2026-04-22 07:13 | 37.90789 | 136.83400 | 37962 ft | 346 kts | 228° |
| 2026-04-22 07:14 | 37.86969 | 136.79690 | 37964 ft | 346 kts | 228° |
| 2026-04-22 07:14 | 37.83142 | 136.75978 | 37963 ft | 347 kts | 228° |
| 2026-04-22 07:15 | 37.79313 | 136.72270 | 37958 ft | 347 kts | 228° |
| 2026-04-22 07:15 | 37.75478 | 136.68559 | 37972 ft | 348 kts | 228° |
| 2026-04-22 07:16 | 37.71637 | 136.64849 | 37970 ft | 348 kts | 228° |
| 2026-04-22 07:16 | 37.67784 | 136.61132 | 37971 ft | 348 kts | 228° |
| 2026-04-22 07:17 | 37.63952 | 136.57440 | 37973 ft | 349 kts | 228° |
| 2026-04-22 07:17 | 37.60087 | 136.53721 | 37971 ft | 349 kts | 228° |
| 2026-04-22 07:18 | 37.56216 | 136.50002 | 37976 ft | 350 kts | 228° |
| 2026-04-22 07:18 | 37.52339 | 136.46282 | 37974 ft | 350 kts | 228° |
| 2026-04-22 07:19 | 37.48463 | 136.42567 | 37976 ft | 351 kts | 227° |
| 2026-04-22 07:19 | 37.44570 | 136.38841 | 37976 ft | 351 kts | 227° |
| 2026-04-22 07:20 | 37.40676 | 136.35119 | 37981 ft | 352 kts | 227° |
| 2026-04-22 07:20 | 37.36779 | 136.31400 | 37978 ft | 352 kts | 227° |
| 2026-04-22 07:21 | 37.32870 | 136.27673 | 37985 ft | 353 kts | 227° |
| 2026-04-22 07:21 | 37.28952 | 136.23944 | 37990 ft | 354 kts | 227° |
| 2026-04-22 07:22 | 37.25051 | 136.20236 | 37989 ft | 354 kts | 227° |
| 2026-04-22 07:22 | 37.21120 | 136.16504 | 37990 ft | 355 kts | 227° |
| 2026-04-22 07:23 | 37.17177 | 136.12766 | 37992 ft | 355 kts | 227° |
| 2026-04-22 07:23 | 37.13229 | 136.09028 | 37994 ft | 356 kts | 227° |
| 2026-04-22 07:24 | 37.09271 | 136.05286 | 37990 ft | 356 kts | 227° |
| 2026-04-22 07:24 | 37.05311 | 136.01547 | 37994 ft | 356 kts | 227° |
| 2026-04-22 07:25 | 37.01355 | 135.97816 | 37995 ft | 357 kts | 227° |
| 2026-04-22 07:25 | 36.97382 | 135.94074 | 37996 ft | 358 kts | 227° |
| 2026-04-22 07:26 | 36.93400 | 135.90329 | 37992 ft | 358 kts | 227° |
| 2026-04-22 07:26 | 36.89417 | 135.86588 | 37994 ft | 359 kts | 227° |
| 2026-04-22 07:27 | 36.85418 | 135.82837 | 37995 ft | 359 kts | 227° |
| 2026-04-22 07:27 | 36.81441 | 135.79112 | 37998 ft | 360 kts | 227° |
| 2026-04-22 07:28 | 36.75422 | 135.73483 | 38004 ft | 361 kts | 227° |
| 2026-04-22 07:28 | 36.71401 | 135.69730 | 38001 ft | 361 kts | 227° |
| 2026-04-22 07:29 | 36.67381 | 135.65982 | 38001 ft | 361 kts | 227° |
| 2026-04-22 07:29 | 36.63351 | 135.62229 | 37993 ft | 362 kts | 227° |
| 2026-04-22 07:30 | 36.59315 | 135.58477 | 38007 ft | 362 kts | 227° |
| 2026-04-22 07:30 | 36.55275 | 135.54725 | 38013 ft | 362 kts | 227° |
| 2026-04-22 07:31 | 36.51229 | 135.50973 | 38010 ft | 363 kts | 227° |
| 2026-04-22 07:31 | 36.47182 | 135.47225 | 38003 ft | 363 kts | 227° |
| 2026-04-22 07:32 | 36.43124 | 135.43472 | 38005 ft | 364 kts | 227° |
| 2026-04-22 07:32 | 36.39060 | 135.39719 | 38002 ft | 364 kts | 227° |
| 2026-04-22 07:33 | 36.34997 | 135.35971 | 38000 ft | 364 kts | 227° |
| 2026-04-22 07:33 | 36.30925 | 135.32220 | 38004 ft | 365 kts | 227° |
| 2026-04-22 07:34 | 36.26876 | 135.28496 | 38009 ft | 365 kts | 227° |
| 2026-04-22 07:34 | 36.22798 | 135.24749 | 38009 ft | 365 kts | 227° |
| 2026-04-22 07:35 | 36.18723 | 135.20985 | 38003 ft | 364 kts | 227° |
| 2026-04-22 07:35 | 36.14699 | 135.17187 | 38004 ft | 364 kts | 228° |
| 2026-04-22 07:36 | 36.10671 | 135.13369 | 38007 ft | 364 kts | 228° |
| 2026-04-22 07:36 | 36.06647 | 135.09565 | 38005 ft | 365 kts | 228° |
| 2026-04-22 07:37 | 36.02606 | 135.05756 | 38008 ft | 365 kts | 228° |
| 2026-04-22 07:37 | 35.98568 | 135.01959 | 38013 ft | 365 kts | 228° |
| 2026-04-22 07:38 | 35.94527 | 134.98162 | 38007 ft | 365 kts | 228° |
| 2026-04-22 07:38 | 35.90497 | 134.94382 | 38011 ft | 366 kts | 228° |
| 2026-04-22 07:39 | 35.86447 | 134.90587 | 38011 ft | 366 kts | 228° |
| 2026-04-22 07:39 | 35.82388 | 134.86789 | 38010 ft | 366 kts | 228° |
| 2026-04-22 07:40 | 35.78327 | 134.82994 | 38006 ft | 366 kts | 228° |
| 2026-04-22 07:40 | 35.74264 | 134.79202 | 38002 ft | 366 kts | 228° |
| 2026-04-22 07:41 | 35.70198 | 134.75412 | 37997 ft | 367 kts | 228° |
| 2026-04-22 07:41 | 35.66130 | 134.71624 | 38004 ft | 367 kts | 228° |
| 2026-04-22 07:42 | 35.62070 | 134.67849 | 38005 ft | 368 kts | 227° |
| 2026-04-22 07:42 | 35.57985 | 134.64051 | 38000 ft | 369 kts | 227° |
| 2026-04-22 07:43 | 35.53889 | 134.60251 | 37994 ft | 369 kts | 227° |
| 2026-04-22 07:43 | 35.49785 | 134.56456 | 38005 ft | 370 kts | 227° |
| 2026-04-22 07:44 | 35.45682 | 134.52663 | 38005 ft | 370 kts | 227° |
| 2026-04-22 07:44 | 35.41566 | 134.48862 | 38014 ft | 370 kts | 227° |
| 2026-04-22 07:45 | 35.37445 | 134.45060 | 38009 ft | 371 kts | 227° |
| 2026-04-22 07:45 | 35.33321 | 134.41262 | 38004 ft | 371 kts | 227° |
| 2026-04-22 07:46 | 35.29197 | 134.37468 | 38010 ft | 372 kts | 227° |
| 2026-04-22 07:46 | 35.25090 | 134.33696 | 38013 ft | 371 kts | 227° |
| 2026-04-22 07:47 | 35.20959 | 134.29905 | 38018 ft | 371 kts | 227° |
| 2026-04-22 07:47 | 35.16825 | 134.26114 | 38013 ft | 371 kts | 227° |
| 2026-04-22 07:48 | 35.12690 | 134.22327 | 38013 ft | 372 kts | 227° |
| 2026-04-22 07:48 | 35.08539 | 134.18534 | 38020 ft | 373 kts | 227° |
| 2026-04-22 07:49 | 35.04383 | 134.14743 | 38025 ft | 373 kts | 227° |
| 2026-04-22 07:49 | 35.00228 | 134.10962 | 38023 ft | 373 kts | 226° |
| 2026-04-22 07:50 | 34.97999 | 134.09255 | 38021 ft | 384 kts | 219° |
| 2026-04-22 07:50 | 34.95503 | 134.07963 | 38013 ft | 399 kts | 210° |
| 2026-04-22 07:50 | 34.92728 | 134.07238 | 38016 ft | 418 kts | 199° |
| 2026-04-22 07:50 | 34.89740 | 134.07209 | 38019 ft | 436 kts | 190° |
| 2026-04-22 07:51 | 34.83656 | 134.08012 | 37368 ft | 439 kts | 185° |
| 2026-04-22 07:51 | 34.80624 | 134.08549 | 36241 ft | 445 kts | 184° |
| 2026-04-22 07:51 | 34.77538 | 134.09103 | 35052 ft | 451 kts | 183° |
| 2026-04-22 07:52 | 34.74405 | 134.09654 | 33870 ft | 457 kts | 182° |
| 2026-04-22 07:52 | 34.71234 | 134.10195 | 32531 ft | 462 kts | 182° |
| 2026-04-22 07:52 | 34.68080 | 134.10721 | 31296 ft | 465 kts | 182° |
| 2026-04-22 07:52 | 34.64833 | 134.11251 | 30039 ft | 466 kts | 181° |
| 2026-04-22 07:53 | 34.61642 | 134.11858 | 28527 ft | 475 kts | 175° |
| 2026-04-22 07:53 | 34.58477 | 134.13224 | 26902 ft | 496 kts | 160° |
| 2026-04-22 07:53 | 34.55591 | 134.15649 | 25488 ft | 515 kts | 142° |
| 2026-04-22 07:53 | 34.53276 | 134.19040 | 24674 ft | 531 kts | 126° |
| 2026-04-22 07:54 | 34.51717 | 134.23117 | 24231 ft | 535 kts | 111° |
| 2026-04-22 07:54 | 34.50626 | 134.27426 | 24056 ft | 534 kts | 109° |
| 2026-04-22 07:54 | 34.49527 | 134.31715 | 24022 ft | 531 kts | 110° |
| 2026-04-22 07:54 | 34.48358 | 134.35942 | 24022 ft | 529 kts | 111° |
| 2026-04-22 07:55 | 34.47135 | 134.40123 | 24020 ft | 526 kts | 112° |
| 2026-04-22 07:55 | 34.45874 | 134.44293 | 24018 ft | 525 kts | 112° |
| 2026-04-22 07:55 | 34.45028 | 134.47041 | 23982 ft | 523 kts | 113° |
| 2026-04-22 07:55 | 34.43762 | 134.51116 | 23556 ft | 508 kts | 113° |
| 2026-04-22 07:56 | 34.42533 | 134.55048 | 22886 ft | 490 kts | 113° |
| 2026-04-22 07:56 | 34.41346 | 134.58824 | 22418 ft | 469 kts | 114° |
| 2026-04-22 07:56 | 34.40097 | 134.62429 | 21981 ft | 468 kts | 122° |
| 2026-04-22 07:56 | 34.38236 | 134.65544 | 21359 ft | 444 kts | 141° |
| 2026-04-22 07:57 | 34.35883 | 134.67724 | 20824 ft | 412 kts | 160° |
| 2026-04-22 07:57 | 34.33307 | 134.68819 | 20464 ft | 375 kts | 180° |
| 2026-04-22 07:57 | 34.30841 | 134.68807 | 20173 ft | 337 kts | 201° |
| 2026-04-22 07:57 | 34.28781 | 134.67845 | 19924 ft | 304 kts | 218° |
| 2026-04-22 07:58 | 34.27051 | 134.66526 | 19671 ft | 287 kts | 221° |
| 2026-04-22 07:58 | 34.25417 | 134.65206 | 19239 ft | 279 kts | 222° |
| 2026-04-22 07:58 | 34.23820 | 134.63908 | 18749 ft | 275 kts | 221° |
| 2026-04-22 07:58 | 34.22243 | 134.62619 | 18255 ft | 271 kts | 222° |
| 2026-04-22 07:59 | 34.20690 | 134.61343 | 17687 ft | 268 kts | 222° |
| 2026-04-22 07:59 | 34.19162 | 134.60077 | 17138 ft | 265 kts | 222° |
| 2026-04-22 07:59 | 34.17654 | 134.58816 | 16608 ft | 261 kts | 221° |
| 2026-04-22 07:59 | 34.16170 | 134.57564 | 16095 ft | 257 kts | 222° |
| 2026-04-22 08:00 | 34.14719 | 134.56324 | 15578 ft | 254 kts | 222° |
| 2026-04-22 08:00 | 34.13289 | 134.55090 | 15080 ft | 251 kts | 221° |
| 2026-04-22 08:00 | 34.11854 | 134.53920 | 14560 ft | 246 kts | 219° |
| 2026-04-22 08:00 | 34.10367 | 134.52919 | 13819 ft | 249 kts | 204° |
| 2026-04-22 08:01 | 34.08586 | 134.52800 | 13017 ft | 271 kts | 176° |
| 2026-04-22 08:01 | 34.06829 | 134.53779 | 12378 ft | 290 kts | 148° |
| 2026-04-22 08:01 | 34.05544 | 134.55690 | 11904 ft | 300 kts | 120° |
| 2026-04-22 08:01 | 34.05039 | 134.58125 | 11451 ft | 303 kts | 93° |
| 2026-04-22 08:02 | 34.05408 | 134.60597 | 11036 ft | 299 kts | 71° |
| 2026-04-22 08:02 | 34.06318 | 134.62814 | 10636 ft | 292 kts | 54° |
| 2026-04-22 08:02 | 34.07608 | 134.64623 | 10237 ft | 285 kts | 43° |
| 2026-04-22 08:02 | 34.09069 | 134.66204 | 9874 ft | 281 kts | 40° |
| 2026-04-22 08:03 | 34.10556 | 134.67710 | 9523 ft | 278 kts | 38° |
| 2026-04-22 08:03 | 34.12053 | 134.69176 | 9117 ft | 276 kts | 38° |
| 2026-04-22 08:03 | 34.13558 | 134.70623 | 8726 ft | 275 kts | 37° |
| 2026-04-22 08:03 | 34.14958 | 134.72189 | 8322 ft | 275 kts | 51° |
| 2026-04-22 08:04 | 34.16004 | 134.74114 | 7951 ft | 274 kts | 60° |
| 2026-04-22 08:04 | 34.16925 | 134.76125 | 7582 ft | 273 kts | 62° |
| 2026-04-22 08:04 | 34.17820 | 134.78133 | 7223 ft | 271 kts | 62° |
| 2026-04-22 08:04 | 34.18713 | 134.80135 | 6873 ft | 270 kts | 61° |
| 2026-04-22 08:05 | 34.19606 | 134.82125 | 6525 ft | 268 kts | 61° |
| 2026-04-22 08:05 | 34.20494 | 134.84098 | 6175 ft | 267 kts | 61° |
| 2026-04-22 08:05 | 34.21377 | 134.86056 | 5850 ft | 264 kts | 61° |
| 2026-04-22 08:05 | 34.22251 | 134.87993 | 5526 ft | 261 kts | 60° |
| 2026-04-22 08:06 | 34.23117 | 134.89912 | 5203 ft | 259 kts | 60° |
| 2026-04-22 08:06 | 34.23975 | 134.91811 | 4876 ft | 257 kts | 60° |
| 2026-04-22 08:06 | 34.24839 | 134.93698 | 4539 ft | 255 kts | 59° |
| 2026-04-22 08:06 | 34.25758 | 134.95524 | 4185 ft | 254 kts | 57° |
| 2026-04-22 08:07 | 34.26699 | 134.97327 | 3840 ft | 253 kts | 57° |
| 2026-04-22 08:07 | 34.27629 | 134.99096 | 3514 ft | 252 kts | 58° |
| 2026-04-22 08:07 | 34.28580 | 135.00903 | 3214 ft | 250 kts | 58° |
| 2026-04-22 08:07 | 34.29513 | 135.02677 | 2896 ft | 249 kts | 58° |
| 2026-04-22 08:08 | 34.30315 | 135.04514 | 2483 ft | 249 kts | 78° |
| 2026-04-22 08:08 | 34.30692 | 135.06499 | 2305 ft | 236 kts | 71° |
| 2026-04-22 08:08 | 34.31572 | 135.08105 | 2129 ft | 225 kts | 47° |
| 2026-04-22 08:08 | 34.32630 | 135.09432 | 2006 ft | 212 kts | 48° |
| 2026-04-22 08:09 | 34.33530 | 135.10730 | 1987 ft | 200 kts | 52° |
| 2026-04-22 08:09 | 34.34394 | 135.12035 | 1999 ft | 198 kts | 52° |
| 2026-04-22 08:09 | 34.35265 | 135.13332 | 1994 ft | 199 kts | 51° |
| 2026-04-22 08:09 | 34.36138 | 135.14627 | 1800 ft | 198 kts | 51° |
| 2026-04-22 08:10 | 34.37008 | 135.15915 | 1522 ft | 197 kts | 51° |
| 2026-04-22 08:10 | 34.37867 | 135.17190 | 1255 ft | 195 kts | 51° |
| 2026-04-22 08:10 | 34.38718 | 135.18454 | 977 ft | 192 kts | 51° |
| 2026-04-22 08:10 | 34.39553 | 135.19694 | 721 ft | 186 kts | 50° |
| 2026-04-22 08:11 | 34.40346 | 135.20871 | 488 ft | 172 kts | 50° |
| 2026-04-22 08:11 | 34.41061 | 135.21932 | 259 ft | 155 kts | 49° |
| 2026-04-22 08:11 | 34.41714 | 135.22899 | 55 ft | 141 kts | 49° |
| 2026-04-22 08:11 | 34.42285 | 135.23746 | 18 ft | 109 kts | 52° |
| 2026-04-22 08:12 | 34.42650 | 135.24284 | 26 ft | 57 kts | 46° |
| 2026-04-22 08:12 | 34.42887 | 135.24455 | 21 ft | 36 kts | 19° |
| 2026-04-22 08:12 | 34.43085 | 135.24484 | 19 ft | 18 kts | 312° |
| 2026-04-22 08:12 | 34.43050 | 135.24365 | 18 ft | 16 kts | 230° |
| 2026-04-22 08:13 | 34.42974 | 135.24254 | 20 ft | 19 kts | 230° |
| 2026-04-22 08:13 | 34.42890 | 135.24122 | 19 ft | 21 kts | 232° |
| 2026-04-22 08:13 | 34.42805 | 135.23997 | 22 ft | 18 kts | 229° |
| 2026-04-22 08:13 | 34.42723 | 135.23868 | 18 ft | 20 kts | 254° |
| 2026-04-22 08:14 | 34.42803 | 135.23742 | 19 ft | 20 kts | 322° |
| 2026-04-22 08:14 | 34.42911 | 135.23634 | 23 ft | 20 kts | 321° |
| 2026-04-22 08:14 | 34.43021 | 135.23513 | 17 ft | 20 kts | 288° |
| 2026-04-22 08:14 | 34.42974 | 135.23358 | 16 ft | 18 kts | 279° |
| 2026-04-22 08:15 | 34.43049 | 135.23270 | 20 ft | 15 kts | 320° |
| 2026-04-22 08:15 | 34.43135 | 135.23188 | 23 ft | 16 kts | 322° |
| 2026-04-22 08:15 | 34.43221 | 135.23101 | 27 ft | 16 kts | 320° |
| 2026-04-22 08:15 | 34.43306 | 135.23020 | 31 ft | 16 kts | 322° |
| 2026-04-22 08:16 | 34.43395 | 135.22934 | 34 ft | 17 kts | 320° |
| 2026-04-22 08:16 | 34.43493 | 135.22926 | 33 ft | 17 kts | 36° |
| 2026-04-22 08:16 | 34.43594 | 135.22879 | 32 ft | 18 kts | 321° |
| 2026-04-22 08:16 | 34.43685 | 135.22803 | 32 ft | 8 kts | 356° |
| 2026-04-22 08:17 | 34.43731 | 135.22846 | 31 ft | 8 kts | 64° |
| 2026-04-22 08:17 | 34.43747 | 135.22882 | 28 ft | 0 kts | 57° |